Archival Weather

Pemba

Pemba, Mozambique (FQPB)

Report from: Saturday, April 1, 2023 6:00 AM CAT
Current time: Wednesday, May 29, 2024 11:46 AM CAT

Current weather – Weather history – Daily summaries
Weather forecast

Temperature24.0°C (75.2°F)
Dew point23.0°C (73.4°F)
Winds 5 kts (2.6 m/s, 5.8 mph) West-Southwest (240°)
Visibility6.2 mi. (10 km)
Clouds Ceiling: Broken clouds 0 ft. (0 m)
Few clouds 2,000 ft. (610 m)
Altimeter29.91 in.Hg (1013 mB)
Relative humidity94 %
Density altitude1,430 ft. (436 m)
Flight conditions Low Instrument Meteorological Conditions
Raw dataFQPB 010400Z 24005KT 9999 FEW020 BKN/// 24/23 Q1013
An error has occurred. This application may no longer respond until reloaded. Reload 🗙